Time;durP1;ratioP1;P1;durP2;ratioP2;P2;SDS_P1;SDS_P2;PMS_P1;PMS_P2;Temp;Humidity;BMP_temperature;BMP_pressure;BME280_temperature;BME280_humidity;BME280_pressure;Samples;Min_cycle;Max_cycle;Signal;HPM_P1;HPM_P2
2022/02/24 00:02:04;;;;;;;4.13;2.65;;;;;;;2.96;62.47;99612.72;5117627;27;20051;-43
2022/02/24 00:04:32;;;;;;;3.13;2.40;;;;;;;2.99;62.59;99604.97;5114389;27;20510;-42
2022/02/24 00:06:58;;;;;;;4.70;3.40;;;;;;;3.02;62.74;99610.13;5131764;27;20406;-42
2022/02/24 00:09:24;;;;;;;5.57;2.83;;;;;;;3.02;62.53;99609.25;5132652;27;20524;-43
2022/02/24 00:11:49;;;;;;;4.65;2.88;;;;;;;3.01;62.57;99621.25;5132534;27;20075;-43
2022/02/24 00:14:15;;;;;;;4.35;2.90;;;;;;;2.89;62.85;99619.59;5132649;27;20108;-42
2022/02/24 00:16:41;;;;;;;6.53;3.25;;;;;;;2.77;63.06;99626.50;5131159;27;20138;-42
2022/02/24 00:19:06;;;;;;;7.22;3.67;;;;;;;2.73;63.35;99628.19;5132617;27;20117;-43
2022/02/24 00:21:32;;;;;;;6.40;3.92;;;;;;;2.75;63.74;99625.66;5131811;27;20039;-42
2022/02/24 00:23:58;;;;;;;6.40;3.75;;;;;;;2.73;63.50;99605.09;5132412;27;20055;-42
2022/02/24 00:26:24;;;;;;;6.90;3.40;;;;;;;2.74;63.73;99605.97;5132205;27;20095;-43
2022/02/24 00:28:49;;;;;;;7.72;4.05;;;;;;;2.87;63.56;99626.47;5132266;27;20035;-42
2022/02/24 00:31:15;;;;;;;8.27;4.13;;;;;;;2.91;63.43;99629.84;5131528;27;20047;-43
2022/02/24 00:33:41;;;;;;;7.30;4.28;;;;;;;2.92;63.75;99629.00;5129935;27;20042;-42
2022/02/24 00:36:07;;;;;;;8.45;4.68;;;;;;;2.94;63.69;99627.25;5131547;27;20053;-42
2022/02/24 00:38:33;;;;;;;7.28;3.40;;;;;;;2.92;63.98;99624.72;5132319;27;20031;-43
2022/02/24 00:40:59;;;;;;;4.55;2.80;;;;;;;2.84;64.02;99623.03;5132113;27;20035;-42
2022/02/24 00:43:26;;;;;;;5.18;2.75;;;;;;;2.75;63.97;99623.94;5132127;27;20039;-43
2022/02/24 00:45:51;;;;;;;6.82;3.50;;;;;;;2.64;64.34;99633.38;5113212;27;20120;-44
2022/02/24 00:48:17;;;;;;;6.03;3.60;;;;;;;2.55;64.22;99628.28;5130151;27;20126;-44
2022/02/24 00:50:44;;;;;;;5.53;3.33;;;;;;;2.47;64.47;99636.00;5131838;27;20143;-43
2022/02/24 00:53:10;;;;;;;10.07;3.10;;;;;;;2.55;64.45;99628.28;5093377;28;20043;-44
2022/02/24 00:55:35;;;;;;;4.43;2.53;;;;;;;2.63;64.16;99639.38;5128909;27;20047;-46
2022/02/24 00:58:01;;;;;;;3.97;2.45;;;;;;;2.54;64.09;99613.75;5114223;27;20193;-42
2022/02/24 01:00:27;;;;;;;3.85;2.13;;;;;;;2.77;63.97;99639.34;5132161;27;20050;-42
2022/02/24 01:02:53;;;;;;;4.32;2.05;;;;;;;2.74;63.93;99634.19;5131486;27;20100;-43
2022/02/24 01:05:18;;;;;;;3.45;1.83;;;;;;;2.81;63.96;99641.03;5111207;27;20115;-45
2022/02/24 01:07:44;;;;;;;5.25;1.88;;;;;;;2.83;63.85;99647.84;5131105;27;20054;-43
2022/02/24 01:10:10;;;;;;;2.53;1.70;;;;;;;2.81;63.94;99654.72;5112748;27;20186;-42
2022/02/24 01:12:37;;;;;;;3.40;2.03;;;;;;;2.63;63.74;99628.25;5130414;27;20459;-42
2022/02/24 01:15:07;;;;;;;3.05;2.10;;;;;;;2.82;64.25;99655.56;5125854;27;20135;-43
2022/02/24 01:17:36;;;;;;;3.55;2.08;;;;;;;2.85;63.85;99653.84;5132043;27;20031;-43
2022/02/24 01:20:05;;;;;;;3.97;2.20;;;;;;;2.87;63.90;99670.09;5131581;27;20039;-44
2022/02/24 01:22:31;;;;;;;4.05;1.92;;;;;;;2.91;63.89;99660.66;5131225;27;20039;-46
2022/02/24 01:24:57;;;;;;;3.97;2.03;;;;;;;2.93;63.70;99666.66;5131416;27;20172;-42
2022/02/24 01:27:23;;;;;;;4.20;2.20;;;;;;;2.68;63.75;99655.59;5131246;27;20043;-42
2022/02/24 01:29:48;;;;;;;3.40;1.73;;;;;;;2.70;63.86;99673.56;5130473;27;20066;-42
2022/02/24 01:32:15;;;;;;;4.85;2.05;;;;;;;2.63;63.72;99679.56;5112675;28;20046;-41
2022/02/24 01:34:41;;;;;;;2.35;1.35;;;;;;;2.59;63.90;99678.72;5131392;27;20035;-42
2022/02/24 01:37:07;;;;;;;3.42;1.98;;;;;;;2.59;63.83;99667.63;5130869;28;20524;-42
2022/02/24 01:39:32;;;;;;;3.67;1.92;;;;;;;2.75;63.82;99682.13;5112549;28;20062;-42
2022/02/24 01:41:58;;;;;;;3.78;2.17;;;;;;;2.82;63.63;99684.66;5130361;27;20510;-42
2022/02/24 01:44:24;;;;;;;2.90;1.50;;;;;;;2.89;63.54;99677.78;5131006;28;20046;-43
2022/02/24 01:46:50;;;;;;;3.05;1.58;;;;;;;2.79;63.14;99687.22;5112429;28;20047;-43
2022/02/24 01:49:18;;;;;;;4.32;1.65;;;;;;;2.70;63.27;99684.69;5112786;28;20427;-41
2022/02/24 01:51:43;;;;;;;4.05;2.00;;;;;;;2.71;63.15;99693.25;5130886;28;20035;-44
2022/02/24 01:54:09;;;;;;;2.20;1.63;;;;;;;2.70;62.88;99694.09;5131070;28;20179;-44
2022/02/24 01:56:35;;;;;;;2.25;1.52;;;;;;;2.73;62.84;99683.81;5131329;27;20122;-44
2022/02/24 01:59:02;;;;;;;2.30;1.70;;;;;;;2.82;62.66;99686.38;5134413;27;20042;-44
2022/02/24 02:01:28;;;;;;;2.55;1.60;;;;;;;2.88;62.52;99689.75;5116985;27;20087;-42
2022/02/24 02:03:54;;;;;;;2.50;1.65;;;;;;;2.91;62.25;99697.47;5134837;27;20043;-44
2022/02/24 02:06:21;;;;;;;3.80;1.40;;;;;;;2.87;61.82;99692.34;5116820;27;20165;-44
2022/02/24 02:08:47;;;;;;;3.05;1.50;;;;;;;2.86;61.92;99699.19;5099998;27;20031;-42
2022/02/24 02:11:12;;;;;;;2.38;1.58;;;;;;;2.76;61.48;99697.53;5135589;27;20046;-44
2022/02/24 02:13:39;;;;;;;1.85;1.40;;;;;;;2.66;61.29;99677.88;5135329;27;20047;-43
2022/02/24 02:16:07;;;;;;;2.92;1.60;;;;;;;2.72;61.12;99682.13;5117079;27;20042;-44
2022/02/24 02:18:33;;;;;;;3.00;1.50;;;;;;;2.67;60.92;99705.22;5135084;27;20066;-44
2022/02/24 02:20:59;;;;;;;2.03;1.38;;;;;;;2.71;61.01;99706.94;5134682;27;20035;-44
2022/02/24 02:23:26;;;;;;;3.13;1.85;;;;;;;2.70;60.71;99705.22;5116948;27;20499;-43
2022/02/24 02:25:51;;;;;;;2.05;1.38;;;;;;;2.70;60.49;99709.50;5134589;27;20035;-43
2022/02/24 02:28:17;;;;;;;3.45;1.70;;;;;;;2.74;60.12;99700.94;5134922;27;20480;-43
2022/02/24 02:30:44;;;;;;;2.33;1.30;;;;;;;2.77;60.08;99709.50;5134921;27;20035;-45
2022/02/24 02:33:10;;;;;;;2.35;1.50;;;;;;;2.81;60.30;99710.34;5133857;27;20038;-43
2022/02/24 02:35:36;;;;;;;3.28;1.50;;;;;;;2.89;60.66;99709.44;5134828;27;20043;-45
2022/02/24 02:38:03;;;;;;;2.40;1.30;;;;;;;2.76;61.21;99720.63;5126055;27;20043;-45
2022/02/24 02:40:29;;;;;;;3.95;1.83;;;;;;;2.54;61.75;99721.50;5134384;27;20061;-43
2022/02/24 02:42:54;;;;;;;4.97;2.17;;;;;;;2.33;62.58;99709.56;5134350;27;20074;-45
2022/02/24 02:45:20;;;;;;;2.53;1.60;;;;;;;2.41;62.66;99722.38;5133829;27;20035;-43
2022/02/24 02:47:46;;;;;;;3.65;1.90;;;;;;;2.33;63.10;99730.09;5134678;27;20395;-43
2022/02/24 02:50:13;;;;;;;3.25;1.83;;;;;;;2.24;63.32;99731.81;5116112;27;20049;-44
2022/02/24 02:52:39;;;;;;;3.55;1.77;;;;;;;2.13;63.69;99722.41;5124805;27;20545;-42
2022/02/24 02:55:07;;;;;;;4.53;1.80;;;;;;;2.28;63.83;99746.34;5128425;27;20055;-45
2022/02/24 02:57:34;;;;;;;3.08;1.75;;;;;;;2.43;63.40;99738.63;5115859;27;20574;-43
2022/02/24 03:00:00;;;;;;;2.70;1.60;;;;;;;2.44;63.38;99733.50;5134105;27;20027;-43
2022/02/24 03:02:25;;;;;;;3.25;2.13;;;;;;;2.43;63.14;99749.75;5133978;27;20051;-44
2022/02/24 03:04:52;;;;;;;3.60;1.98;;;;;;;2.43;63.23;99752.31;5133850;27;20054;-43
2022/02/24 03:07:18;;;;;;;6.25;2.05;;;;;;;2.42;63.00;99749.75;5115856;27;20498;-45
2022/02/24 03:09:45;;;;;;;5.47;2.85;;;;;;;2.38;63.56;99753.16;5133385;27;20046;-42
2022/02/24 03:12:11;;;;;;;4.95;2.22;;;;;;;2.47;63.64;99751.44;5133956;27;20127;-42
2022/02/24 03:14:38;;;;;;;8.77;2.70;;;;;;;2.34;63.55;99741.22;5132868;27;20039;-45
2022/02/24 03:17:04;;;;;;;5.55;2.83;;;;;;;2.31;63.64;99759.16;5130717;27;20126;-42
2022/02/24 03:19:30;;;;;;;4.30;2.63;;;;;;;2.39;63.88;99758.31;5098362;27;20403;-44
2022/02/24 03:21:56;;;;;;;6.90;3.08;;;;;;;2.35;63.60;99741.22;5133805;27;20068;-43
2022/02/24 03:24:22;;;;;;;4.72;2.90;;;;;;;2.46;63.65;99754.03;5133646;27;20398;-44
2022/02/24 03:26:48;;;;;;;5.35;2.60;;;;;;;2.54;63.67;99758.31;5115414;27;20050;-44
2022/02/24 03:29:14;;;;;;;5.40;2.88;;;;;;;2.46;63.79;99733.50;5133143;27;20168;-43
2022/02/24 03:31:40;;;;;;;6.05;2.45;;;;;;;2.61;63.69;99761.72;5115356;27;20038;-43
2022/02/24 03:34:06;;;;;;;4.20;2.60;;;;;;;2.65;63.90;99766.00;5133044;27;20051;-44
2022/02/24 03:36:32;;;;;;;4.68;2.65;;;;;;;2.66;63.91;99767.72;5114977;27;20130;-42
2022/02/24 03:38:58;;;;;;;5.30;2.75;;;;;;;2.59;64.03;99752.31;5133138;27;20039;-43
2022/02/24 03:41:23;;;;;;;5.65;2.80;;;;;;;2.62;63.78;99760.00;5133264;27;20046;-44
2022/02/24 03:43:50;;;;;;;6.32;2.85;;;;;;;2.65;64.26;99771.13;5114515;27;20039;-43
2022/02/24 03:46:16;;;;;;;6.18;3.15;;;;;;;2.78;64.14;99787.34;5132936;27;20058;-43
2022/02/24 03:48:42;;;;;;;4.78;2.80;;;;;;;2.69;64.31;99766.81;5132573;27;20083;-44
2022/02/24 03:51:07;;;;;;;4.45;2.72;;;;;;;2.78;64.22;99782.22;5097779;27;20459;-43
2022/02/24 03:53:33;;;;;;;4.85;2.75;;;;;;;2.55;63.94;99764.28;5132863;27;20095;-43
2022/02/24 03:55:59;;;;;;;4.78;2.67;;;;;;;2.74;63.91;99795.91;5115202;27;20084;-46
2022/02/24 03:58:24;;;;;;;4.68;2.65;;;;;;;2.78;63.90;99802.75;5132753;27;20039;-43
2022/02/24 04:00:50;;;;;;;3.38;2.22;;;;;;;2.72;64.05;99800.22;5132971;27;20061;-42
2022/02/24 04:03:16;;;;;;;3.75;2.30;;;;;;;2.70;63.85;99807.91;5133913;27;20101;-46
2022/02/24 04:05:42;;;;;;;4.88;2.70;;;;;;;2.70;63.90;99805.34;5124797;27;20051;-44
2022/02/24 04:08:08;;;;;;;4.32;2.30;;;;;;;2.77;63.90;99812.19;5132255;27;20039;-45
2022/02/24 04:10:33;;;;;;;5.20;2.45;;;;;;;2.78;63.67;99821.56;5132714;27;20050;-44
2022/02/24 04:12:59;;;;;;;4.25;2.60;;;;;;;2.75;63.62;99829.28;5113941;27;20060;-43
2022/02/24 04:15:25;;;;;;;4.10;2.17;;;;;;;2.77;63.45;99826.72;5114899;27;20072;-42
2022/02/24 04:17:50;;;;;;;5.78;2.70;;;;;;;2.79;63.59;99835.28;5136587;27;20039;-43
2022/02/24 04:20:16;;;;;;;4.20;2.42;;;;;;;2.80;63.54;99832.72;5117093;27;20039;-45
2022/02/24 04:22:41;;;;;;;4.93;2.72;;;;;;;2.79;63.61;99837.84;5132144;27;20043;-46
2022/02/24 04:25:08;;;;;;;4.82;2.40;;;;;;;2.78;63.36;99834.41;5132228;27;20038;-44
2022/02/24 04:27:33;;;;;;;4.47;2.35;;;;;;;2.77;63.41;99843.00;5131867;27;20046;-45
2022/02/24 04:29:59;;;;;;;3.90;2.20;;;;;;;2.79;63.63;99856.66;5136075;27;20597;-43
2022/02/24 04:32:25;;;;;;;6.00;2.30;;;;;;;2.83;63.64;99863.50;5132101;27;20488;-43
2022/02/24 04:34:51;;;;;;;4.75;2.45;;;;;;;2.86;63.62;99854.97;5132451;27;20067;-45
2022/02/24 04:37:16;;;;;;;4.55;2.40;;;;;;;2.80;63.78;99866.09;5113836;27;20422;-45
2022/02/24 04:39:42;;;;;;;5.68;2.42;;;;;;;2.86;63.34;99868.66;5138738;27;20039;-43
2022/02/24 04:42:08;;;;;;;3.80;2.20;;;;;;;2.90;63.38;99872.06;5131369;27;20054;-43
2022/02/24 04:44:34;;;;;;;6.60;2.42;;;;;;;2.91;63.32;99869.50;5119740;27;20042;-43
2022/02/24 04:46:59;;;;;;;3.90;2.47;;;;;;;2.90;63.22;99872.94;5117252;27;20035;-44
2022/02/24 04:49:25;;;;;;;4.88;2.63;;;;;;;2.93;63.05;99872.09;5137852;27;20069;-43
2022/02/24 04:51:51;;;;;;;5.43;2.10;;;;;;;2.93;63.02;99883.19;5139981;27;20418;-43
2022/02/24 04:54:16;;;;;;;4.53;2.33;;;;;;;2.90;63.02;99895.19;5141511;27;20058;-46
2022/02/24 04:56:42;;;;;;;7.25;2.53;;;;;;;2.84;63.28;99901.16;5139227;27;20141;-45
2022/02/24 04:59:08;;;;;;;3.58;2.13;;;;;;;2.62;63.11;99896.88;5132978;27;20466;-43
2022/02/24 05:01:34;;;;;;;4.80;1.80;;;;;;;2.67;63.09;99904.59;5131600;27;20521;-43
2022/02/24 05:04:00;;;;;;;3.67;2.20;;;;;;;2.72;63.07;99910.59;5131464;27;20130;-43
2022/02/24 05:06:26;;;;;;;5.80;2.30;;;;;;;2.77;63.01;99914.88;5131506;27;20138;-44
2022/02/24 05:08:51;;;;;;;3.78;2.25;;;;;;;2.81;63.22;99914.00;5116549;27;20107;-43
2022/02/24 05:11:17;;;;;;;4.78;2.20;;;;;;;2.78;63.47;99915.69;5139781;27;20031;-45
2022/02/24 05:14:01;;;;;;;3.55;2.10;;;;;;;2.84;63.53;99919.13;5138155;27;20046;-42
2022/02/24 05:16:27;;;;;;;7.30;2.80;;;;;;;2.85;63.45;99923.44;5140390;27;20041;-43
2022/02/24 05:18:52;;;;;;;7.43;2.97;;;;;;;2.88;63.35;99922.56;5141148;27;20038;-44
2022/02/24 05:21:18;;;;;;;5.53;2.65;;;;;;;2.92;63.53;99927.72;5140838;27;20039;-42
2022/02/24 05:23:44;;;;;;;4.57;1.98;;;;;;;2.96;63.56;99933.69;5137512;27;20070;-45
2022/02/24 05:26:10;;;;;;;5.55;2.42;;;;;;;2.99;63.34;99931.13;5141586;27;20094;-46
2022/02/24 05:28:35;;;;;;;4.45;2.60;;;;;;;3.03;63.40;99932.84;5120811;27;20099;-44
2022/02/24 05:31:01;;;;;;;5.25;2.72;;;;;;;3.09;63.19;99935.41;5141948;27;20130;-44
2022/02/24 05:33:27;;;;;;;5.82;2.40;;;;;;;3.14;63.08;99938.00;5139195;27;20127;-44
2022/02/24 05:35:53;;;;;;;4.90;2.50;;;;;;;3.16;62.91;99936.25;5141758;27;20039;-43
2022/02/24 05:38:19;;;;;;;4.43;2.40;;;;;;;3.22;62.56;99937.13;5133079;27;20414;-45
2022/02/24 05:40:44;;;;;;;4.78;2.88;;;;;;;3.26;62.13;99936.25;5137330;27;20133;-45
2022/02/24 05:43:10;;;;;;;4.13;2.28;;;;;;;3.31;61.66;99946.53;5130112;27;20461;-44
2022/02/24 05:45:36;;;;;;;4.00;2.30;;;;;;;3.37;61.64;99938.81;5112622;28;20046;-44
2022/02/24 05:48:02;;;;;;;6.45;2.70;;;;;;;3.43;61.24;99941.38;5112183;28;20047;-45
2022/02/24 05:50:27;;;;;;;4.35;2.25;;;;;;;3.39;61.22;99935.41;5124734;28;20043;-39
2022/02/24 05:52:53;;;;;;;4.57;2.40;;;;;;;3.46;61.13;99949.06;5113430;27;20133;-42
2022/02/24 05:55:18;;;;;;;6.13;2.53;;;;;;;3.49;61.12;99948.22;5140976;27;20087;-42
2022/02/24 05:57:45;;;;;;;4.10;2.58;;;;;;;3.50;61.25;99953.38;5137249;27;20070;-42
2022/02/24 06:00:11;;;;;;;5.45;2.55;;;;;;;3.51;60.94;99955.06;5130002;28;20039;-42
2022/02/24 06:02:40;;;;;;;4.45;2.72;;;;;;;3.48;60.71;99949.06;5104019;28;20063;-41
2022/02/24 06:05:06;;;;;;;5.47;2.22;;;;;;;3.53;60.79;99961.06;5130538;28;20508;-44
2022/02/24 06:07:32;;;;;;;3.20;2.20;;;;;;;3.55;60.57;99958.50;5106717;28;20043;-43
2022/02/24 06:09:58;;;;;;;5.43;2.60;;;;;;;3.54;60.03;99962.78;5120355;28;20533;-43
2022/02/24 06:12:24;;;;;;;3.13;2.00;;;;;;;3.53;60.04;99962.78;5124844;28;20073;-43
2022/02/24 06:14:49;;;;;;;5.05;2.35;;;;;;;3.54;60.16;99964.50;5126641;28;20043;-44
2022/02/24 06:17:15;;;;;;;3.33;2.05;;;;;;;3.53;59.89;99973.06;5127786;28;20067;-43
2022/02/24 06:19:42;;;;;;;3.50;2.05;;;;;;;3.53;59.91;99978.19;5127746;28;20058;-42
2022/02/24 06:22:08;;;;;;;4.32;2.50;;;;;;;3.44;59.34;99970.50;5128274;28;20054;-41
2022/02/24 06:24:34;;;;;;;4.65;2.15;;;;;;;3.51;59.21;99988.47;5111157;28;20035;-42
2022/02/24 06:26:59;;;;;;;2.72;1.92;;;;;;;3.46;58.84;99979.91;5111341;28;20073;-43
2022/02/24 06:29:25;;;;;;;3.88;2.38;;;;;;;3.39;58.13;99975.66;5130056;28;20043;-42
2022/02/24 06:31:50;;;;;;;2.95;1.52;;;;;;;3.41;58.04;100000.47;5128659;28;20145;-42
2022/02/24 06:34:17;;;;;;;3.53;1.73;;;;;;;3.33;57.89;99997.06;5121838;28;20047;-44
2022/02/24 06:36:43;;;;;;;2.90;1.80;;;;;;;3.32;57.82;99999.63;5129821;28;20101;-42
2022/02/24 06:39:08;;;;;;;4.53;2.22;;;;;;;3.30;57.65;99993.63;5129021;28;20126;-43
2022/02/24 06:41:34;;;;;;;3.55;1.83;;;;;;;3.36;57.53;99993.63;5110833;28;20035;-42
2022/02/24 06:43:59;;;;;;;3.17;1.83;;;;;;;3.42;57.36;99998.75;5112995;27;20118;-42
2022/02/24 06:46:25;;;;;;;3.35;2.00;;;;;;;3.54;56.83;99996.19;5133279;27;20039;-43
2022/02/24 06:48:51;;;;;;;3.22;1.77;;;;;;;3.65;57.04;99998.75;5114124;27;20099;-43
2022/02/24 06:51:17;;;;;;;5.15;2.08;;;;;;;3.75;56.56;100003.88;5132815;27;20091;-44
2022/02/24 06:53:43;;;;;;;4.40;1.60;;;;;;;3.80;56.39;100006.44;5114545;27;20031;-42
2022/02/24 06:56:08;;;;;;;3.90;2.30;;;;;;;3.69;56.22;99980.75;5115237;27;20046;-44
2022/02/24 06:58:34;;;;;;;6.30;2.05;;;;;;;3.83;56.11;100009.84;5132622;27;20062;-42
2022/02/24 07:01:02;;;;;;;4.18;2.40;;;;;;;3.82;55.87;100009.88;5114126;27;20042;-43
2022/02/24 07:03:28;;;;;;;3.38;2.17;;;;;;;3.87;55.75;100015.88;5132548;27;20152;-42
2022/02/24 07:05:54;;;;;;;4.13;2.25;;;;;;;3.89;56.13;100026.13;5130756;27;20160;-42
2022/02/24 07:08:22;;;;;;;3.22;1.80;;;;;;;3.79;55.33;100028.72;5133262;27;20548;-42
2022/02/24 07:10:47;;;;;;;3.20;1.83;;;;;;;3.74;55.46;100035.59;5132821;27;20043;-43
2022/02/24 07:13:13;;;;;;;3.53;2.10;;;;;;;3.79;55.36;100039.00;5133546;27;20043;-43
2022/02/24 07:15:39;;;;;;;5.28;2.15;;;;;;;3.86;55.19;100036.44;5114532;27;20061;-44
2022/02/24 07:18:04;;;;;;;2.63;1.88;;;;;;;3.89;54.53;100041.56;5133220;27;20117;-43
2022/02/24 07:20:30;;;;;;;4.55;2.47;;;;;;;3.93;54.92;100040.69;5132360;27;20093;-43
2022/02/24 07:22:56;;;;;;;4.50;2.00;;;;;;;3.97;54.28;100043.28;5113682;27;20031;-43
2022/02/24 07:25:22;;;;;;;3.17;2.00;;;;;;;3.98;54.64;100044.13;5126428;27;20100;-43
2022/02/24 07:27:49;;;;;;;5.28;1.80;;;;;;;3.97;53.90;100043.28;5133248;27;20462;-43
2022/02/24 07:30:15;;;;;;;3.20;1.90;;;;;;;3.91;53.66;100032.13;5129572;27;20086;-43
2022/02/24 07:32:41;;;;;;;3.97;1.65;;;;;;;4.05;53.47;100050.97;5130593;27;20479;-42
2022/02/24 07:35:07;;;;;;;2.97;1.80;;;;;;;4.06;53.60;100056.13;5113801;27;20092;-43
2022/02/24 07:37:32;;;;;;;4.05;1.90;;;;;;;4.06;53.45;100050.09;5101032;27;20125;-44
2022/02/24 07:39:58;;;;;;;3.70;2.17;;;;;;;4.03;53.32;100050.13;5120699;27;20121;-41
2022/02/24 07:42:24;;;;;;;6.43;2.10;;;;;;;3.99;53.54;100045.81;5130552;27;20767;-43
2022/02/24 07:44:56;;;;;;;3.00;1.50;;;;;;;3.98;53.49;100042.38;5113827;27;20050;-41
2022/02/24 07:47:28;;;;;;;4.20;2.10;;;;;;;4.07;52.97;100059.53;5063538;27;20058;-42
2022/02/24 07:49:54;;;;;;;2.88;1.55;;;;;;;4.11;52.71;100067.25;5112510;27;20058;-42
2022/02/24 07:52:22;;;;;;;3.40;1.70;;;;;;;4.12;52.40;100071.53;5132809;27;20038;-41
2022/02/24 07:54:48;;;;;;;4.43;2.35;;;;;;;4.11;52.59;100072.41;5131557;27;20078;-42
2022/02/24 07:57:13;;;;;;;5.75;2.10;;;;;;;4.09;52.13;100066.38;5114042;27;20546;-41
2022/02/24 07:59:39;;;;;;;3.33;1.75;;;;;;;3.97;52.18;100053.56;5131875;27;20508;-42
2022/02/24 08:02:05;;;;;;;4.72;2.20;;;;;;;3.98;52.55;100050.09;5132661;27;20046;-42
2022/02/24 08:04:31;;;;;;;3.13;1.77;;;;;;;4.03;51.95;100079.25;5114325;27;20047;-42
2022/02/24 08:06:56;;;;;;;5.50;1.90;;;;;;;3.93;51.62;100058.69;5132632;27;20479;-43
2022/02/24 08:09:22;;;;;;;4.13;2.03;;;;;;;3.95;51.99;100073.28;5132358;27;20099;-42
2022/02/24 08:12:38;;;;;;;3.38;1.70;;;;;;;3.94;51.87;100081.00;5131010;27;20035;-42
2022/02/24 08:14:35;;;;;;;2.58;1.42;;;;;;;3.94;51.70;100078.41;5132309;27;20094;-41
2022/02/24 08:17:03;;;;;;;2.67;1.58;;;;;;;3.80;51.58;100069.00;5113893;27;20038;-42
2022/02/24 08:19:28;;;;;;;3.20;1.55;;;;;;;3.85;51.78;100089.59;5132025;27;20072;-42
2022/02/24 08:21:54;;;;;;;3.58;1.38;;;;;;;3.76;51.68;100081.88;5132209;27;20047;-41
2022/02/24 08:24:19;;;;;;;2.50;1.33;;;;;;;3.75;51.38;100077.59;5113341;27;20546;-43
2022/02/24 08:26:45;;;;;;;2.20;1.40;;;;;;;3.70;51.05;100076.75;5132247;27;20050;-42
2022/02/24 08:29:11;;;;;;;2.70;1.20;;;;;;;3.70;51.10;100081.88;5131708;27;20126;-42
2022/02/24 08:31:36;;;;;;;4.35;1.50;;;;;;;3.70;51.01;100074.16;5132098;27;20051;-41
2022/02/24 08:34:03;;;;;;;2.60;1.40;;;;;;;3.69;51.09;100081.03;5113015;27;20046;-42
2022/02/24 08:36:30;;;;;;;3.30;1.13;;;;;;;3.65;51.01;100083.59;5131397;27;20050;-40
2022/02/24 08:38:56;;;;;;;2.58;1.30;;;;;;;3.48;51.30;100059.59;5113035;27;20118;-40
2022/02/24 08:41:22;;;;;;;2.33;1.42;;;;;;;3.66;51.43;100080.19;5131350;27;20062;-42
2022/02/24 08:43:48;;;;;;;2.40;1.23;;;;;;;3.57;51.10;100075.00;5130854;27;20043;-42
2022/02/24 08:46:14;;;;;;;3.35;1.77;;;;;;;3.29;51.40;100081.88;5130954;27;20047;-42
2022/02/24 08:48:41;;;;;;;3.08;1.52;;;;;;;3.15;51.52;100075.81;5130392;27;20087;-41
2022/02/24 08:51:07;;;;;;;4.18;1.50;;;;;;;3.24;51.77;100074.16;5113258;27;20177;-41
2022/02/24 08:53:32;;;;;;;2.25;1.40;;;;;;;3.30;51.45;100074.13;5131218;27;20133;-43
2022/02/24 08:55:58;;;;;;;2.55;1.35;;;;;;;3.12;51.72;100058.72;5096344;27;20047;-41
2022/02/24 08:58:24;;;;;;;2.42;1.38;;;;;;;3.23;51.92;100076.72;5112449;27;20107;-46
2022/02/24 09:00:50;;;;;;;3.55;1.13;;;;;;;3.06;52.31;100078.38;5131329;27;20043;-43
2022/02/24 09:03:17;;;;;;;4.25;1.67;;;;;;;2.91;52.51;100071.50;5131096;27;20115;-41
2022/02/24 09:05:47;;;;;;;4.93;2.15;;;;;;;2.89;52.89;100074.06;5112702;27;20039;-41
2022/02/24 09:08:13;;;;;;;;;;;;;;;2.90;52.96;100080.91;5112474;27;20042;-42
2022/02/24 09:10:39;;;;;;;2.90;1.75;;;;;;;2.98;52.82;100086.09;5127881;27;19927;-42
2022/02/24 09:13:05;;;;;;;3.00;1.65;;;;;;;3.10;52.94;100078.38;5099873;27;20035;-43
2022/02/24 09:15:32;;;;;;;3.55;1.88;;;;;;;3.09;52.95;100066.38;5134846;27;20031;-42
2022/02/24 09:17:59;;;;;;;4.80;1.90;;;;;;;3.19;53.04;100086.09;5096078;27;20039;-40
2022/02/24 09:20:25;;;;;;;5.20;1.98;;;;;;;3.28;52.81;100072.44;5131228;27;20139;-41
2022/02/24 09:22:51;;;;;;;3.35;1.80;;;;;;;3.33;53.18;100071.59;5130280;27;20035;-40
2022/02/24 09:25:17;;;;;;;3.28;2.03;;;;;;;3.45;53.02;100070.75;5130934;27;20043;-43
2022/02/24 09:27:43;;;;;;;3.60;1.83;;;;;;;3.50;52.78;100078.44;5131257;27;20072;-42
2022/02/24 09:30:09;;;;;;;7.63;2.38;;;;;;;3.48;52.77;100080.16;5130602;27;20071;-42
2022/02/24 09:32:36;;;;;;;4.03;2.05;;;;;;;3.39;52.84;100083.59;5092617;28;20457;-42
2022/02/24 09:35:03;;;;;;;3.95;2.08;;;;;;;3.24;53.08;100091.28;5129379;27;20557;-41
2022/02/24 09:37:34;;;;;;;5.10;2.47;;;;;;;2.92;53.85;100075.78;5131443;27;20084;-41
2022/02/24 09:40:10;;;;;;;6.95;2.63;;;;;;;2.97;54.10;100092.94;5112147;28;20062;-41
2022/02/24 09:42:37;;;;;;;5.05;1.98;;;;;;;2.72;54.56;100069.75;5114032;28;20034;-42
2022/02/24 09:45:04;;;;;;;2.50;1.77;;;;;;;2.78;54.60;100085.13;5100431;28;20048;-41
2022/02/24 09:47:31;;;;;;;3.53;2.20;;;;;;;2.74;54.32;100091.13;5131176;28;20464;-41
2022/02/24 09:50:01;;;;;;;3.42;1.88;;;;;;;2.81;54.27;100093.72;5130909;28;20126;-41
2022/02/24 09:52:26;;;;;;;5.85;2.00;;;;;;;2.69;54.51;100085.97;5091408;28;20056;-42
2022/02/24 09:54:52;;;;;;;5.28;1.50;;;;;;;2.60;54.46;100085.94;5094078;28;20065;-43
2022/02/24 09:57:18;;;;;;;5.25;2.30;;;;;;;2.66;54.85;100093.69;5112258;28;20502;-41
2022/02/24 09:59:43;;;;;;;6.50;2.30;;;;;;;2.71;55.35;100102.25;5130781;28;20039;-42
2022/02/24 10:02:10;;;;;;;4.38;2.38;;;;;;;2.58;55.13;100087.63;5130053;27;20054;-41
2022/02/24 10:04:36;;;;;;;3.45;1.80;;;;;;;2.51;55.28;100111.59;5111723;28;20506;-41
2022/02/24 10:07:02;;;;;;;3.70;1.98;;;;;;;2.22;56.09;100090.88;5130701;28;20039;-44
2022/02/24 10:09:32;;;;;;;3.30;1.75;;;;;;;2.18;55.84;100103.69;5129960;28;20043;-42
2022/02/24 10:12:09;;;;;;;2.28;1.45;;;;;;;2.27;56.21;100098.59;5111949;28;20159;-42
2022/02/24 10:14:35;;;;;;;4.85;2.33;;;;;;;2.38;55.93;100102.09;5130358;27;20130;-43
2022/02/24 10:17:06;;;;;;;4.88;2.10;;;;;;;2.42;55.92;100106.38;5112416;28;20494;-42
2022/02/24 10:19:39;;;;;;;6.63;2.22;;;;;;;2.48;56.08;100111.53;5131547;27;20039;-42
2022/02/24 10:22:12;;;;;;;3.92;1.88;;;;;;;2.54;55.82;100103.88;5133096;27;20105;-41
2022/02/24 10:24:39;;;;;;;3.95;2.25;;;;;;;2.54;55.24;100106.44;5097709;27;20471;-43
2022/02/24 10:27:34;;;;;;;4.78;2.13;;;;;;;2.45;55.41;100107.28;5116332;27;20031;-41
2022/02/24 10:30:09;;;;;;;2.58;1.48;;;;;;;2.62;55.12;100117.59;5099153;27;20088;-43
2022/02/24 10:32:37;;;;;;;3.10;1.20;;;;;;;2.49;54.48;100113.28;5098825;27;20069;-43
2022/02/24 10:35:22;;;;;;;2.17;1.23;;;;;;;2.36;54.13;100116.59;5131898;27;20034;-42
2022/02/24 10:38:02;;;;;;;2.00;1.13;;;;;;;2.11;54.50;100111.34;5131172;27;20545;-43
2022/02/24 10:40:31;;;;;;;3.35;1.20;;;;;;;1.99;54.49;100107.84;5134346;27;20057;-42
2022/02/24 10:43:21;;;;;;;5.45;0.88;;;;;;;2.02;54.03;100115.56;5115476;27;20045;-42
2022/02/24 10:45:59;;;;;;;1.80;1.23;;;;;;;2.09;53.88;100123.28;5098776;27;20085;-41
2022/02/24 10:48:25;;;;;;;2.25;1.27;;;;;;;2.00;53.44;100089.88;5134202;27;20179;-41
2022/02/24 10:51:01;;;;;;;1.98;1.23;;;;;;;2.09;53.29;100112.19;5132600;27;20035;-42
2022/02/24 10:53:29;;;;;;;2.08;1.30;;;;;;;2.13;53.50;100112.22;5133905;27;20042;-42
2022/02/24 10:56:09;;;;;;;2.45;1.42;;;;;;;2.25;53.29;100108.00;5133744;27;20039;-42
2022/02/24 10:58:36;;;;;;;;;;;;;;;2.36;52.77;100109.78;5127175;27;20043;-42
2022/02/24 11:01:09;;;;;;;2.42;1.05;;;;;;;2.23;52.83;100112.28;5133930;27;19923;-42
2022/02/24 11:03:36;;;;;;;3.72;1.20;;;;;;;2.24;53.30;100119.97;5127867;27;20055;-42
2022/02/24 11:06:04;;;;;;;2.28;1.00;;;;;;;2.28;53.31;100121.72;5114958;27;20043;-42
2022/02/24 11:08:31;;;;;;;3.28;1.40;;;;;;;2.30;53.01;100125.16;5080915;27;20039;-41
2022/02/24 11:10:57;;;;;;;2.78;1.10;;;;;;;2.40;52.85;100133.75;5114442;27;20035;-43
2022/02/24 11:13:23;;;;;;;1.75;1.33;;;;;;;2.49;53.15;100106.44;5132790;27;20196;-41
2022/02/24 11:15:50;;;;;;;1.77;1.40;;;;;;;2.68;52.83;100119.34;5115163;27;20526;-42
2022/02/24 11:18:16;;;;;;;2.47;1.40;;;;;;;2.84;52.73;100126.25;5133629;27;20119;-42
2022/02/24 11:20:43;;;;;;;3.70;1.75;;;;;;;2.92;52.75;100135.72;5133555;27;20495;-42
2022/02/24 11:23:08;;;;;;;2.95;1.50;;;;;;;2.93;52.42;100123.75;5095921;27;20042;-43
2022/02/24 11:25:38;;;;;;;2.88;1.58;;;;;;;2.92;52.12;100146.00;5094937;27;20498;-41
2022/02/24 11:28:04;;;;;;;1.88;1.08;;;;;;;2.81;51.41;100115.97;5115284;27;20125;-42
2022/02/24 11:30:32;;;;;;;3.75;1.27;;;;;;;2.73;51.17;100135.63;5114851;27;20100;-41
2022/02/24 11:32:58;;;;;;;2.33;1.27;;;;;;;2.76;51.42;100135.66;5132376;27;20035;-41
2022/02/24 11:35:25;;;;;;;1.27;1.08;;;;;;;2.72;50.96;100127.06;5114716;27;20104;-42
2022/02/24 11:37:55;;;;;;;3.42;1.30;;;;;;;2.78;50.97;100131.34;5114383;27;20126;-42